Time;durP1;ratioP1;P1;durP2;ratioP2;P2;SDS_P1;SDS_P2;PMS_P1;PMS_P2;Temp;Humidity;BMP_temperature;BMP_pressure;BME280_temperature;BME280_humidity;BME280_pressure;Samples;Min_cycle;Max_cycle;Signal;HPM_P1;HPM_P2
2021/12/01 00:02:01;;;;;;;0.85;0.28;;;;;;;9.12;70.77;100046.94;5028480;28;20046;-84
2021/12/01 00:04:26;;;;;;;0.20;0.20;;;;;;;9.35;70.58;100039.41;5058909;28;20586;-84
2021/12/01 00:06:51;;;;;;;0.20;0.20;;;;;;;9.25;71.23;100044.88;5038866;28;20269;-84
2021/12/01 00:09:17;;;;;;;0.47;0.20;;;;;;;9.39;71.15;100031.53;5050080;28;20047;-85
2021/12/01 00:11:42;;;;;;;0.40;0.20;;;;;;;9.28;69.74;100034.41;5024629;28;20032;-84
2021/12/01 00:14:08;;;;;;;0.15;0.15;;;;;;;9.24;69.84;100019.84;5042058;28;20037;-84
2021/12/01 00:16:33;;;;;;;0.20;0.20;;;;;;;9.18;69.87;100023.47;5042665;28;20075;-84
2021/12/01 00:18:59;;;;;;;0.30;0.30;;;;;;;9.13;71.08;100025.31;5045601;28;20041;-84
2021/12/01 00:21:25;;;;;;;0.45;0.30;;;;;;;9.21;70.49;100020.78;5024184;28;20033;-84
2021/12/01 00:23:50;;;;;;;0.13;0.10;;;;;;;9.18;70.37;100020.88;5038667;28;20527;-84
2021/12/01 00:26:16;;;;;;;0.20;0.20;;;;;;;9.21;69.98;100019.94;5030117;28;20047;-84
2021/12/01 00:28:42;;;;;;;0.30;0.30;;;;;;;9.28;69.09;100018.88;5035307;28;20502;-84
2021/12/01 00:31:07;;;;;;;0.17;0.17;;;;;;;9.00;69.60;100013.59;5044651;28;20140;-84
2021/12/01 00:33:33;;;;;;;0.20;0.20;;;;;;;9.17;68.14;100023.50;5042223;28;20041;-85
2021/12/01 00:35:59;;;;;;;0.40;0.30;;;;;;;9.20;67.96;100013.06;5044577;28;20091;-84
2021/12/01 00:38:25;;;;;;;0.20;0.20;;;;;;;9.17;69.33;100011.41;5042847;28;20107;-84
2021/12/01 00:40:51;;;;;;;0.20;0.20;;;;;;;9.17;69.05;100002.78;5039835;28;20037;-84
2021/12/01 00:43:17;;;;;;;0.68;0.20;;;;;;;9.20;69.67;99995.75;5040471;28;20042;-84
2021/12/01 00:45:51;;;;;;;1.10;0.20;;;;;;;9.21;69.46;99989.69;5027047;28;20029;-84
2021/12/01 00:48:18;;;;;;;0.20;0.20;;;;;;;9.18;69.75;99984.59;5039860;28;20033;-84
2021/12/01 00:50:44;;;;;;;0.20;0.20;;;;;;;9.25;69.56;99975.75;5036546;28;20047;-84
2021/12/01 00:53:11;;;;;;;2.17;0.20;;;;;;;9.27;69.18;99962.75;5041338;28;20028;-84
2021/12/01 00:55:37;;;;;;;0.35;0.35;;;;;;;9.28;68.22;99961.84;5038030;28;20128;-84
2021/12/01 00:58:03;;;;;;;0.40;0.30;;;;;;;9.15;69.96;99960.50;5040118;28;20135;-84
2021/12/01 01:00:31;;;;;;;0.93;0.50;;;;;;;9.32;68.45;99950.50;5040923;28;20476;-84
2021/12/01 01:02:58;;;;;;;0.60;0.50;;;;;;;9.18;69.04;99945.72;5051566;28;20048;-84
2021/12/01 01:05:24;;;;;;;0.60;0.40;;;;;;;9.26;68.30;99936.00;5044146;28;20036;-84
2021/12/01 01:07:50;;;;;;;2.17;0.40;;;;;;;9.40;68.55;99938.16;5033697;28;20044;-84
2021/12/01 01:18:29;;;;;;;;;;;;;;;9.02;68.75;99928.06;5034239;28;20433;-85
2021/12/01 01:20:55;;;;;;;0.30;0.30;;;;;;;9.16;68.48;99920.72;5040741;28;19935;-86
2021/12/01 01:23:20;;;;;;;0.22;0.22;;;;;;;9.24;68.48;99911.88;5038861;28;20104;-86
2021/12/01 01:25:46;;;;;;;0.40;0.40;;;;;;;9.22;68.91;99907.59;5033335;28;20068;-86
2021/12/01 01:28:12;;;;;;;0.52;0.52;;;;;;;9.10;68.72;99905.38;5037071;28;20033;-86
2021/12/01 01:30:37;;;;;;;0.35;0.35;;;;;;;9.26;68.00;99896.25;5048473;28;20036;-86
2021/12/01 01:33:03;;;;;;;0.30;0.30;;;;;;;9.23;68.62;99904.97;5036672;28;20038;-86
2021/12/01 01:35:28;;;;;;;0.43;0.40;;;;;;;9.34;68.51;99902.91;5033110;28;20044;-85
2021/12/01 01:37:54;;;;;;;0.20;0.20;;;;;;;9.19;68.72;99893.00;5034320;28;20036;-85
2021/12/01 01:40:19;;;;;;;0.32;0.32;;;;;;;9.27;67.38;99878.09;5028427;28;20064;-85
2021/12/01 01:42:45;;;;;;;0.20;0.20;;;;;;;9.36;68.22;99877.78;5034920;28;20033;-85
2021/12/01 01:45:11;;;;;;;0.20;0.20;;;;;;;9.35;67.28;99876.13;5039896;28;20056;-85
2021/12/01 01:48:00;;;;;;;2.05;0.40;;;;;;;9.22;67.95;99877.34;5034766;28;20033;-85
2021/12/01 01:50:35;;;;;;;0.32;0.30;;;;;;;9.22;68.27;99879.09;5040521;28;20063;-85
2021/12/01 01:53:07;;;;;;;0.22;0.22;;;;;;;9.31;67.02;99865.88;5045265;28;20388;-85
2021/12/01 01:55:32;;;;;;;0.30;0.30;;;;;;;9.27;67.71;99870.31;5041616;28;20052;-85
2021/12/01 01:57:58;;;;;;;0.60;0.40;;;;;;;9.25;67.31;99861.72;5043799;28;20114;-85
2021/12/01 02:00:25;;;;;;;0.30;0.30;;;;;;;9.24;68.01;99857.47;5038738;28;20099;-85
2021/12/01 02:02:51;;;;;;;0.32;0.32;;;;;;;9.25;67.80;99861.72;5009268;28;20029;-85
2021/12/01 02:05:16;;;;;;;0.20;0.20;;;;;;;9.15;67.90;99862.06;5046980;28;20063;-85
2021/12/01 02:07:43;;;;;;;0.43;0.40;;;;;;;9.31;66.01;99861.53;5040690;28;20593;-85
2021/12/01 02:10:09;;;;;;;0.40;0.40;;;;;;;9.04;67.30;99858.94;5038849;28;20506;-85
2021/12/01 02:12:37;;;;;;;0.50;0.50;;;;;;;9.15;67.79;99854.28;5024275;28;20053;-85
2021/12/01 02:15:03;;;;;;;0.50;0.43;;;;;;;9.20;67.00;99849.81;5035350;28;20036;-85
2021/12/01 02:17:28;;;;;;;0.50;0.50;;;;;;;9.17;67.38;99858.53;5042722;28;20573;-85
2021/12/01 02:19:55;;;;;;;2.33;0.50;;;;;;;9.23;67.28;99855.75;5025382;28;20051;-85
2021/12/01 02:22:21;;;;;;;0.52;0.47;;;;;;;9.11;66.68;99850.06;5047830;28;20033;-85
2021/12/01 02:24:47;;;;;;;0.50;0.43;;;;;;;9.22;67.37;99838.50;5040051;28;21453;-86
2021/12/01 02:27:13;;;;;;;0.52;0.43;;;;;;;9.06;67.38;99829.50;5040638;28;20172;-85
2021/12/01 02:29:38;;;;;;;0.80;0.60;;;;;;;9.10;67.07;99823.31;5036101;28;20029;-85
2021/12/01 02:32:05;;;;;;;0.52;0.40;;;;;;;9.22;66.20;99820.34;5043062;28;20031;-85
2021/12/01 02:34:34;;;;;;;0.52;0.40;;;;;;;9.21;66.29;99810.91;5038720;28;20034;-85
2021/12/01 02:36:59;;;;;;;0.75;0.40;;;;;;;9.18;67.23;99811.00;5037051;28;20029;-85
2021/12/01 02:39:26;;;;;;;1.00;0.50;;;;;;;9.17;66.78;99803.25;5027454;28;20041;-85
2021/12/01 02:41:54;;;;;;;0.60;0.50;;;;;;;9.08;66.52;99785.41;5037832;28;20033;-85
2021/12/01 02:44:21;;;;;;;1.30;0.40;;;;;;;9.25;65.54;99776.22;5040235;28;20775;-85
2021/12/01 02:46:46;;;;;;;0.95;0.60;;;;;;;9.19;65.06;99775.53;5033180;28;20040;-84
2021/12/01 02:49:12;;;;;;;1.08;0.68;;;;;;;9.07;65.95;99760.38;5034601;28;20073;-84
2021/12/01 02:51:38;;;;;;;0.55;0.50;;;;;;;9.25;66.19;99752.03;5041301;28;20025;-84
2021/12/01 02:54:06;;;;;;;1.08;0.77;;;;;;;9.04;65.97;99750.13;5037087;28;20482;-84
2021/12/01 02:56:32;;;;;;;0.90;0.52;;;;;;;9.13;66.41;99740.31;5035658;28;20032;-84
2021/12/01 02:59:00;;;;;;;1.63;0.75;;;;;;;9.31;64.80;99733.69;5036866;28;20525;-84
2021/12/01 03:01:27;;;;;;;0.80;0.70;;;;;;;9.07;66.07;99721.50;5041824;28;20050;-84
2021/12/01 03:03:53;;;;;;;1.65;0.70;;;;;;;9.16;65.28;99711.72;5040545;28;20048;-84
2021/12/01 03:06:21;;;;;;;1.90;1.00;;;;;;;9.14;65.04;99713.53;5041286;28;20029;-84
2021/12/01 03:08:48;;;;;;;0.90;0.70;;;;;;;9.26;64.64;99723.50;5039011;28;20024;-84
2021/12/01 03:11:14;;;;;;;0.82;0.60;;;;;;;9.16;65.86;99718.63;5042384;28;20056;-84
2021/12/01 03:13:40;;;;;;;1.27;0.80;;;;;;;9.22;65.79;99713.25;5042470;28;20596;-84
2021/12/01 03:16:07;;;;;;;2.22;0.93;;;;;;;9.17;66.19;99710.84;5040423;28;20037;-84
2021/12/01 03:18:33;;;;;;;0.88;0.70;;;;;;;9.26;65.49;99701.91;5041309;28;20033;-84
2021/12/01 03:20:59;;;;;;;1.10;1.00;;;;;;;9.15;65.98;99706.59;5034888;28;20041;-84
2021/12/01 03:23:26;;;;;;;1.45;0.88;;;;;;;9.13;64.91;99692.81;5030987;28;20113;-84
2021/12/01 03:25:52;;;;;;;1.20;1.02;;;;;;;9.08;65.80;99680.03;5016656;28;20129;-84
2021/12/01 03:28:18;;;;;;;1.50;1.08;;;;;;;9.12;65.72;99683.38;5025334;28;20120;-84
2021/12/01 03:30:45;;;;;;;2.13;0.70;;;;;;;9.05;64.70;99681.88;5041185;28;20119;-84
2021/12/01 03:33:13;;;;;;;2.35;0.90;;;;;;;9.00;65.06;99665.63;5059640;28;20123;-84
2021/12/01 03:35:41;;;;;;;2.53;1.10;;;;;;;9.19;63.80;99659.81;5048529;28;20017;-84
2021/12/01 03:38:08;;;;;;;0.65;0.52;;;;;;;9.23;64.46;99665.72;5039230;28;20079;-84
2021/12/01 03:40:34;;;;;;;0.90;0.68;;;;;;;9.17;64.82;99660.75;5032930;28;20041;-84
2021/12/01 03:42:59;;;;;;;1.13;0.90;;;;;;;8.93;65.42;99659.81;5040006;28;20069;-84
2021/12/01 03:45:25;;;;;;;1.10;0.80;;;;;;;9.18;63.78;99658.13;5042015;28;20132;-84
2021/12/01 03:47:51;;;;;;;1.75;0.95;;;;;;;9.25;62.76;99659.59;5042385;28;20024;-84
2021/12/01 03:50:16;;;;;;;2.25;1.02;;;;;;;9.13;64.51;99661.72;5040408;28;20030;-84
2021/12/01 03:52:43;;;;;;;1.58;0.85;;;;;;;9.03;65.10;99655.19;5043524;28;20112;-85
2021/12/01 03:55:09;;;;;;;1.17;0.80;;;;;;;8.84;64.79;99648.88;5052313;28;20041;-84
2021/12/01 03:57:35;;;;;;;1.13;0.95;;;;;;;8.86;64.20;99647.09;5032992;28;20103;-84
2021/12/01 04:00:03;;;;;;;1.58;1.13;;;;;;;8.79;64.78;99652.47;5030791;28;20046;-84
2021/12/01 04:02:30;;;;;;;2.25;1.15;;;;;;;8.86;65.30;99647.94;5045923;28;20031;-84
2021/12/01 04:04:55;;;;;;;2.67;1.48;;;;;;;9.05;63.45;99643.00;5022621;28;20038;-84
2021/12/01 04:07:21;;;;;;;1.98;1.40;;;;;;;8.93;64.66;99652.03;5044880;28;20390;-84
2021/12/01 04:09:47;;;;;;;2.17;1.60;;;;;;;8.97;64.04;99647.59;5039467;28;20091;-84
2021/12/01 04:12:13;;;;;;;2.85;1.65;;;;;;;8.68;65.58;99654.53;5037604;28;20044;-84
2021/12/01 04:14:38;;;;;;;2.95;1.80;;;;;;;8.75;64.79;99634.47;5026292;28;20033;-84
2021/12/01 04:17:05;;;;;;;3.47;1.67;;;;;;;8.86;64.54;99627.22;5042776;28;20041;-84
2021/12/01 04:19:32;;;;;;;3.72;2.10;;;;;;;9.00;64.85;99627.63;5045891;28;20056;-85
2021/12/01 04:21:57;;;;;;;2.83;1.58;;;;;;;8.83;64.63;99627.31;5039429;28;20033;-85
2021/12/01 04:24:24;;;;;;;2.45;1.60;;;;;;;8.82;64.93;99624.78;5041183;28;20029;-85
2021/12/01 04:26:50;;;;;;;4.43;2.00;;;;;;;8.82;64.33;99602.34;5042201;28;20025;-85
2021/12/01 04:29:15;;;;;;;3.42;2.10;;;;;;;8.87;64.01;99582.31;5026576;28;20030;-85
2021/12/01 04:31:41;;;;;;;2.92;2.00;;;;;;;8.98;64.45;99563.84;5035530;28;20033;-85
2021/12/01 04:34:08;;;;;;;3.95;1.80;;;;;;;8.71;64.75;99558.66;5041932;28;20124;-85
2021/12/01 04:36:39;;;;;;;3.25;2.05;;;;;;;8.71;64.37;99569.00;5056140;28;20045;-85
2021/12/01 04:39:08;;;;;;;4.03;2.35;;;;;;;8.78;64.82;99564.47;5053536;28;20040;-85
2021/12/01 04:41:49;;;;;;;3.90;2.28;;;;;;;8.89;65.15;99561.56;5036669;28;20117;-84
2021/12/01 04:44:15;;;;;;;4.57;1.90;;;;;;;8.81;64.83;99566.97;5043278;28;20094;-84
2021/12/01 04:46:46;;;;;;;2.47;1.60;;;;;;;8.89;64.22;99549.44;5028448;28;20453;-84
2021/12/01 04:49:15;;;;;;;4.55;2.15;;;;;;;9.01;64.19;99533.47;5042910;28;20079;-84
2021/12/01 04:51:43;;;;;;;4.88;1.70;;;;;;;8.96;64.62;99511.22;5033520;28;20414;-84
2021/12/01 04:54:09;;;;;;;3.10;1.75;;;;;;;8.74;65.13;99511.94;5030721;28;20029;-84
2021/12/01 04:56:36;;;;;;;3.53;1.88;;;;;;;8.71;66.13;99499.09;5039142;28;20036;-84
2021/12/01 04:59:01;;;;;;;2.95;1.70;;;;;;;8.68;65.20;99488.84;5045093;28;20060;-84
2021/12/01 05:01:27;;;;;;;3.17;2.17;;;;;;;8.51;65.63;99488.56;5042942;28;20068;-84
2021/12/01 05:03:52;;;;;;;3.20;1.48;;;;;;;8.51;65.68;99467.00;5030038;28;20629;-84
2021/12/01 05:06:18;;;;;;;2.47;1.30;;;;;;;8.57;65.60;99459.91;5041447;28;20033;-84
2021/12/01 05:08:44;;;;;;;5.60;1.77;;;;;;;8.74;65.33;99475.69;5034170;28;20052;-84
2021/12/01 05:11:10;;;;;;;2.80;1.70;;;;;;;8.83;64.86;99471.13;5044221;28;20057;-84
2021/12/01 05:13:35;;;;;;;4.78;1.60;;;;;;;8.78;65.71;99469.53;5011267;28;20064;-84
2021/12/01 05:16:01;;;;;;;2.67;1.58;;;;;;;8.87;63.83;99452.81;5040947;28;20403;-84
2021/12/01 05:18:27;;;;;;;2.08;1.17;;;;;;;8.62;65.51;99458.00;5038771;28;20044;-84
2021/12/01 05:20:52;;;;;;;2.67;1.40;;;;;;;8.60;65.96;99436.50;5038589;28;20051;-84
2021/12/01 05:23:18;;;;;;;3.38;1.38;;;;;;;8.53;65.42;99441.94;5037244;28;20052;-84
2021/12/01 05:25:45;;;;;;;2.28;1.10;;;;;;;8.60;64.76;99433.91;5041412;28;20056;-84
2021/12/01 05:28:11;;;;;;;1.67;1.27;;;;;;;8.59;65.42;99428.81;5037880;28;20042;-84
2021/12/01 05:30:37;;;;;;;3.50;1.38;;;;;;;8.60;65.91;99420.13;5041405;28;20036;-84
2021/12/01 05:33:08;;;;;;;3.88;1.27;;;;;;;8.45;65.00;99413.72;5039991;28;20041;-84
2021/12/01 05:35:34;;;;;;;2.72;1.40;;;;;;;8.62;65.21;99403.63;5041336;28;20020;-84
2021/12/01 05:38:00;;;;;;;1.38;1.00;;;;;;;8.55;64.93;99393.56;5040767;28;20037;-84
2021/12/01 05:40:26;;;;;;;1.70;1.15;;;;;;;8.66;64.66;99384.50;5035913;28;20050;-84
2021/12/01 05:42:51;;;;;;;1.85;1.10;;;;;;;8.51;64.65;99377.28;5030514;28;20048;-84
2021/12/01 05:45:18;;;;;;;0.80;0.70;;;;;;;8.43;64.71;99375.84;5037570;28;20059;-84
2021/12/01 05:47:46;;;;;;;1.25;1.00;;;;;;;8.66;64.57;99370.72;5044832;28;20021;-84
2021/12/01 05:50:12;;;;;;;1.75;1.23;;;;;;;8.60;64.78;99374.38;5039565;28;20025;-85
2021/12/01 05:52:37;;;;;;;1.58;0.98;;;;;;;8.67;63.96;99367.25;5042921;28;20029;-84
2021/12/01 05:55:05;;;;;;;2.15;1.10;;;;;;;8.68;64.49;99372.34;5035861;28;20037;-84
2021/12/01 05:57:31;;;;;;;1.38;0.98;;;;;;;8.66;64.83;99361.22;5049085;28;20079;-84
2021/12/01 05:59:56;;;;;;;1.40;0.90;;;;;;;8.61;63.93;99357.97;5036793;28;20641;-84
2021/12/01 06:02:22;;;;;;;3.13;1.27;;;;;;;8.63;64.40;99352.72;5045243;28;20088;-84
2021/12/01 06:04:48;;;;;;;2.88;1.42;;;;;;;8.47;63.92;99347.25;5044719;28;20041;-84
2021/12/01 06:07:14;;;;;;;1.67;0.90;;;;;;;8.71;63.88;99336.00;5035824;28;20136;-84
2021/12/01 06:09:41;;;;;;;0.60;0.60;;;;;;;8.49;64.59;99318.72;5035159;28;20502;-84
2021/12/01 06:12:07;;;;;;;1.30;0.80;;;;;;;8.88;63.44;99293.97;5038499;28;20044;-84
2021/12/01 06:14:34;;;;;;;0.73;0.60;;;;;;;8.71;62.99;99286.81;5032959;28;20039;-84
2021/12/01 06:16:59;;;;;;;0.60;0.60;;;;;;;8.81;63.84;99279.56;5015912;28;20045;-84
2021/12/01 06:19:25;;;;;;;0.75;0.70;;;;;;;8.55;64.05;99270.16;5003154;28;20565;-84
2021/12/01 06:21:50;;;;;;;1.58;0.95;;;;;;;8.60;64.32;99257.91;5019172;28;20033;-84
2021/12/01 06:24:16;;;;;;;1.20;1.02;;;;;;;8.72;63.54;99257.44;5023665;28;20568;-84
2021/12/01 06:26:41;;;;;;;0.77;0.55;;;;;;;8.77;63.12;99250.34;5041897;28;20025;-84
2021/12/01 06:29:07;;;;;;;1.17;0.57;;;;;;;8.59;63.78;99256.19;5030307;28;20060;-84
2021/12/01 06:31:32;;;;;;;1.27;0.70;;;;;;;8.63;63.46;99234.50;5010295;28;20095;-84
2021/12/01 06:33:59;;;;;;;0.47;0.47;;;;;;;8.77;63.00;99227.03;5039666;28;20029;-84
2021/12/01 06:36:26;;;;;;;1.23;0.65;;;;;;;8.75;63.35;99226.25;5043165;28;20037;-84
2021/12/01 06:38:57;;;;;;;1.05;0.70;;;;;;;8.86;63.88;99223.25;5038394;28;20041;-85
2021/12/01 06:41:23;;;;;;;2.05;0.68;;;;;;;8.56;63.55;99229.63;5040621;28;20037;-84
2021/12/01 06:43:48;;;;;;;0.60;0.60;;;;;;;8.80;63.62;99226.91;5036232;28;20044;-84
2021/12/01 06:46:14;;;;;;;0.82;0.63;;;;;;;8.94;62.65;99230.75;5038470;28;20460;-84
2021/12/01 06:48:40;;;;;;;1.13;0.70;;;;;;;8.76;63.73;99220.19;5035180;28;20454;-84
2021/12/01 06:51:05;;;;;;;1.73;0.80;;;;;;;8.93;63.65;99204.00;5035121;28;20052;-84
2021/12/01 06:53:31;;;;;;;0.85;0.63;;;;;;;8.67;64.24;99211.94;5040963;28;20070;-84
2021/12/01 06:55:57;;;;;;;2.85;0.52;;;;;;;8.58;63.88;99207.09;5020201;28;20557;-84
2021/12/01 06:58:22;;;;;;;0.57;0.50;;;;;;;8.82;63.68;99201.00;5044219;28;20044;-83
2021/12/01 07:00:48;;;;;;;0.70;0.60;;;;;;;8.74;63.78;99197.88;5038036;28;20032;-83
2021/12/01 07:03:14;;;;;;;1.85;1.05;;;;;;;8.75;63.96;99189.16;5041784;28;20029;-88
2021/12/01 07:05:39;;;;;;;0.80;0.60;;;;;;;8.61;63.77;99179.34;5039512;28;20028;-87
2021/12/01 07:08:05;;;;;;;0.45;0.40;;;;;;;8.78;63.86;99176.97;5044450;28;20109;-87
2021/12/01 07:10:31;;;;;;;0.47;0.40;;;;;;;8.72;63.95;99172.00;5044747;28;20517;-89
2021/12/01 07:12:56;;;;;;;0.60;0.50;;;;;;;8.88;63.54;99150.72;5045490;28;20036;-89
2021/12/01 07:15:22;;;;;;;0.60;0.60;;;;;;;8.85;63.22;99154.25;5028102;28;20551;-89
2021/12/01 07:17:48;;;;;;;1.35;0.60;;;;;;;8.94;63.31;99145.28;5046160;28;20501;-89
2021/12/01 07:20:15;;;;;;;0.47;0.45;;;;;;;9.02;62.76;99138.88;5030441;28;20094;-88
2021/12/01 07:22:43;;;;;;;0.50;0.50;;;;;;;9.03;62.81;99134.56;5028642;28;20045;-87
2021/12/01 07:25:09;;;;;;;0.60;0.40;;;;;;;8.83;63.28;99127.56;5042852;28;20059;-87
2021/12/01 07:27:35;;;;;;;0.30;0.30;;;;;;;8.85;62.83;99128.38;5044399;28;20393;-88
2021/12/01 07:30:01;;;;;;;0.35;0.30;;;;;;;9.00;61.87;99126.91;5041720;28;20045;-88
2021/12/01 07:32:27;;;;;;;1.10;0.20;;;;;;;8.87;62.46;99130.88;5044733;28;20425;-89
2021/12/01 07:34:53;;;;;;;0.30;0.30;;;;;;;8.73;62.83;99132.28;5045354;28;20041;-88
2021/12/01 07:37:19;;;;;;;0.30;0.30;;;;;;;8.81;63.60;99116.44;5038387;28;20037;-88
2021/12/01 07:39:46;;;;;;;0.63;0.30;;;;;;;8.98;62.19;99108.81;5043977;28;20126;-89
2021/12/01 07:42:13;;;;;;;0.38;0.30;;;;;;;9.05;63.03;99115.44;5032681;28;20564;-89
2021/12/01 07:44:38;;;;;;;0.52;0.20;;;;;;;9.11;62.23;99112.59;5048175;28;20056;-89
2021/12/01 07:47:05;;;;;;;0.20;0.20;;;;;;;8.99;62.89;99112.25;5043166;28;20610;-89
2021/12/01 07:49:31;;;;;;;0.22;0.22;;;;;;;8.94;63.02;99114.22;5064763;28;20056;-89
2021/12/01 07:51:57;;;;;;;0.98;0.28;;;;;;;8.98;62.89;99110.59;5007551;28;20084;-89
2021/12/01 07:54:22;;;;;;;0.80;0.30;;;;;;;9.00;62.64;99104.44;5040941;28;20061;-90
2021/12/01 07:56:48;;;;;;;0.32;0.30;;;;;;;8.93;63.57;99096.97;5025984;28;20598;-89
2021/12/01 07:59:15;;;;;;;0.30;0.30;;;;;;;9.03;62.45;99088.78;5030040;28;20119;-89
2021/12/01 08:01:45;;;;;;;0.50;0.20;;;;;;;8.65;63.87;99092.91;5041184;28;20052;-89
2021/12/01 08:04:11;;;;;;;0.35;0.35;;;;;;;9.04;62.94;99079.28;5026114;28;20041;-89
2021/12/01 08:06:38;;;;;;;0.30;0.30;;;;;;;9.05;62.76;99091.28;5041645;28;20040;-88
2021/12/01 08:09:04;;;;;;;0.38;0.20;;;;;;;9.14;62.68;99083.16;5038334;28;20042;-89
2021/12/01 08:11:30;;;;;;;0.45;0.30;;;;;;;9.14;63.11;99084.00;5042880;28;20063;-89
2021/12/01 08:13:56;;;;;;;0.32;0.30;;;;;;;8.95;63.15;99077.88;5033563;28;20053;-89
2021/12/01 08:16:21;;;;;;;0.85;0.25;;;;;;;8.93;63.60;99078.84;5048288;28;20048;-89
2021/12/01 08:18:53;;;;;;;0.20;0.20;;;;;;;9.00;63.24;99078.56;5041017;28;20044;-88
2021/12/01 08:21:19;;;;;;;0.22;0.20;;;;;;;8.96;63.65;99074.38;5033955;28;20111;-89
2021/12/01 08:23:45;;;;;;;0.32;0.32;;;;;;;9.10;63.47;99081.56;5042933;28;20029;-89
2021/12/01 08:26:10;;;;;;;0.32;0.30;;;;;;;9.03;63.63;99082.75;5055152;28;20132;-89
2021/12/01 08:28:36;;;;;;;0.38;0.30;;;;;;;9.19;63.53;99073.41;5037339;28;20037;-89
2021/12/01 08:31:02;;;;;;;0.40;0.30;;;;;;;9.01;63.21;99067.25;5039180;28;20037;-89
2021/12/01 08:33:27;;;;;;;0.32;0.30;;;;;;;9.02;63.20;99068.09;5039206;28;20048;-89
2021/12/01 08:35:53;;;;;;;0.32;0.20;;;;;;;8.99;63.02;99063.06;5037298;28;20486;-89
2021/12/01 08:38:18;;;;;;;0.50;0.40;;;;;;;9.04;62.71;99066.31;5046338;28;20112;-89
2021/12/01 08:40:44;;;;;;;0.22;0.22;;;;;;;9.13;63.39;99064.16;5045484;28;20037;-89
2021/12/01 08:43:10;;;;;;;0.32;0.22;;;;;;;9.03;63.31;99064.63;5043816;28;20273;-89
2021/12/01 08:45:35;;;;;;;0.40;0.40;;;;;;;9.08;63.38;99058.34;5046222;28;20036;-89
2021/12/01 08:48:03;;;;;;;0.57;0.30;;;;;;;9.03;63.72;99049.94;5044356;28;20041;-89
2021/12/01 08:50:29;;;;;;;0.40;0.30;;;;;;;9.12;63.53;99048.69;5041712;28;20029;-89
2021/12/01 08:52:55;;;;;;;0.30;0.30;;;;;;;8.90;63.58;99040.13;5040771;28;20030;-89
2021/12/01 08:55:23;;;;;;;0.38;0.20;;;;;;;9.19;63.71;99032.81;5048352;28;20045;-89
2021/12/01 08:57:49;;;;;;;0.57;0.25;;;;;;;9.41;62.57;99027.56;5024168;28;20475;-89
2021/12/01 09:00:16;;;;;;;0.52;0.35;;;;;;;9.21;62.69;99027.59;5009730;28;20052;-89
2021/12/01 09:02:42;;;;;;;0.25;0.25;;;;;;;9.22;63.30;99016.28;5049353;28;20029;-88
2021/12/01 09:05:08;;;;;;;0.40;0.38;;;;;;;9.17;63.32;99021.69;5043196;28;20028;-89
2021/12/01 09:07:33;;;;;;;2.25;0.35;;;;;;;9.11;63.93;99018.50;5037396;28;20072;-89
2021/12/01 09:09:59;;;;;;;0.40;0.30;;;;;;;9.19;63.53;99021.59;5040517;28;20514;-89
2021/12/01 09:12:25;;;;;;;0.30;0.30;;;;;;;9.29;63.20;99002.19;5029655;28;20470;-89
2021/12/01 09:14:52;;;;;;;0.30;0.30;;;;;;;9.26;63.50;99000.56;5037444;28;20036;-89
2021/12/01 09:17:18;;;;;;;0.25;0.22;;;;;;;9.14;63.46;98993.31;5039204;28;20032;-89
2021/12/01 09:19:44;;;;;;;0.20;0.20;;;;;;;9.26;63.50;98994.53;5021840;28;20083;-89
2021/12/01 09:22:09;;;;;;;0.40;0.22;;;;;;;9.28;64.00;99001.34;5052529;28;20037;-89
2021/12/01 09:24:35;;;;;;;0.10;0.10;;;;;;;9.24;63.97;98986.00;5032139;28;20609;-89
2021/12/01 09:27:01;;;;;;;0.25;0.20;;;;;;;9.38;63.35;98990.56;5047073;28;20409;-93
2021/12/01 09:29:27;;;;;;;0.57;0.30;;;;;;;9.35;62.98;98966.47;5042448;28;20048;-90
2021/12/01 09:31:58;;;;;;;0.20;0.17;;;;;;;9.38;62.10;98975.88;5043725;28;20026;-89
2021/12/01 09:34:24;;;;;;;0.20;0.20;;;;;;;9.30;63.33;98983.16;5028600;28;20071;-89
2021/12/01 09:36:49;;;;;;;0.20;0.20;;;;;;;9.32;63.30;98976.97;5031548;28;20037;-89
2021/12/01 09:39:16;;;;;;;0.43;0.25;;;;;;;9.52;62.86;98976.09;5038268;28;20045;-89
2021/12/01 09:41:41;;;;;;;1.27;0.55;;;;;;;9.40;63.46;98957.63;5042927;28;20051;-92
2021/12/01 09:44:07;;;;;;;1.02;0.30;;;;;;;9.58;63.69;98962.00;5037739;28;20480;-90
2021/12/01 09:46:33;;;;;;;0.52;0.30;;;;;;;9.51;63.95;98960.63;5040699;28;20039;-89
2021/12/01 09:49:00;;;;;;;0.40;0.35;;;;;;;9.38;64.38;98951.69;5037954;28;20402;-89
2021/12/01 09:51:26;;;;;;;0.90;0.30;;;;;;;9.50;64.12;98957.19;5039558;28;20067;-90
2021/12/01 09:53:53;;;;;;;0.40;0.20;;;;;;;9.61;63.36;98948.91;5034440;28;20032;-89
2021/12/01 09:56:19;;;;;;;0.20;0.20;;;;;;;9.60;62.55;98945.47;5039092;28;20048;-89
2021/12/01 09:58:46;;;;;;;0.20;0.20;;;;;;;9.39;63.48;98945.63;5038525;28;20041;-90
2021/12/01 10:01:20;;;;;;;0.57;0.30;;;;;;;9.49;64.03;98931.31;5035703;28;20037;-90
2021/12/01 10:03:46;;;;;;;1.00;0.30;;;;;;;9.52;63.12;98926.84;5035196;28;20037;-89
2021/12/01 10:06:15;;;;;;;1.35;0.38;;;;;;;9.36;63.71;98931.88;5037438;28;20112;-89
2021/12/01 10:08:43;;;;;;;0.90;0.30;;;;;;;9.58;62.60;98916.19;5036811;28;20048;-89
2021/12/01 10:11:11;;;;;;;0.60;0.30;;;;;;;9.63;62.88;98918.56;5040355;28;20025;-89
2021/12/01 10:13:40;;;;;;;0.28;0.28;;;;;;;9.59;61.99;98909.25;5037929;28;20583;-89
2021/12/01 10:16:10;;;;;;;0.30;0.30;;;;;;;9.51;63.03;98906.19;5022986;28;20057;-89
2021/12/01 10:18:38;;;;;;;0.30;0.30;;;;;;;9.47;62.88;98894.25;5033073;28;20055;-89
2021/12/01 10:21:17;;;;;;;0.45;0.30;;;;;;;9.57;62.74;98879.97;5035964;28;20034;-89
2021/12/01 10:23:49;;;;;;;1.70;0.30;;;;;;;9.80;61.67;98877.97;5068952;28;20025;-89
2021/12/01 10:26:20;;;;;;;0.57;0.47;;;;;;;9.63;62.82;98880.50;5023114;28;20025;-89
2021/12/01 10:28:48;;;;;;;0.57;0.40;;;;;;;9.78;62.07;98887.56;5038255;28;20030;-89
2021/12/01 10:31:31;;;;;;;1.58;0.50;;;;;;;9.84;61.60;98863.09;5036903;28;20040;-89
2021/12/01 10:34:13;;;;;;;0.50;0.43;;;;;;;9.61;62.44;98869.38;5036901;28;20036;-89
2021/12/01 10:36:39;;;;;;;0.40;0.40;;;;;;;9.60;62.85;98862.50;5043655;28;20067;-89
2021/12/01 10:39:06;;;;;;;0.57;0.40;;;;;;;9.70;63.05;98850.81;5058418;28;20064;-89
2021/12/01 10:41:36;;;;;;;0.40;0.40;;;;;;;9.78;62.43;98853.84;5030957;28;20060;-89
2021/12/01 10:44:17;;;;;;;0.77;0.60;;;;;;;9.64;62.51;98839.88;5035263;28;20506;-89
2021/12/01 10:46:53;;;;;;;0.30;0.20;;;;;;;9.64;62.66;98845.06;5032532;28;20034;-89
2021/12/01 10:49:37;;;;;;;0.20;0.20;;;;;;;9.70;63.12;98842.19;5039974;28;20033;-89
2021/12/01 10:52:03;;;;;;;0.30;0.30;;;;;;;9.71;63.43;98828.31;5039345;28;20171;-89
2021/12/01 10:54:28;;;;;;;1.95;0.35;;;;;;;9.82;62.60;98820.84;5042007;28;20128;-89
2021/12/01 10:57:18;;;;;;;0.52;0.28;;;;;;;9.95;62.95;98802.97;5043200;28;20136;-89
2021/12/01 10:59:49;;;;;;;0.68;0.68;;;;;;;9.80;62.81;98826.13;5040150;28;20083;-89
2021/12/01 11:02:16;;;;;;;0.20;0.20;;;;;;;9.71;63.80;98812.75;5049100;28;20033;-89
2021/12/01 11:04:47;;;;;;;0.10;0.10;;;;;;;9.90;62.47;98808.38;5042366;28;20033;-89
2021/12/01 11:07:33;;;;;;;0.20;0.20;;;;;;;9.88;62.85;98808.44;5041141;28;20047;-89
2021/12/01 11:10:17;;;;;;;0.80;0.30;;;;;;;9.87;63.79;98811.06;5037199;28;20030;-89
2021/12/01 11:12:54;;;;;;;1.58;1.08;;;;;;;9.88;63.05;98794.63;5032432;28;20044;-89
2021/12/01 11:15:24;;;;;;;0.40;0.40;;;;;;;9.93;62.24;98800.44;5044301;28;20057;-89
2021/12/01 11:17:51;;;;;;;0.30;0.20;;;;;;;9.88;63.95;98794.63;5041661;28;20149;-89
2021/12/01 11:20:46;;;;;;;1.15;0.60;;;;;;;9.96;63.32;98799.47;5040352;28;20144;-89
2021/12/01 11:23:23;;;;;;;0.20;0.20;;;;;;;9.89;63.39;98786.81;5047608;28;20044;-89
2021/12/01 11:26:06;;;;;;;0.30;0.30;;;;;;;9.88;63.75;98787.69;5020464;28;20491;-89
2021/12/01 11:28:43;;;;;;;0.30;0.30;;;;;;;10.02;62.40;98788.78;5037537;28;20172;-89
2021/12/01 11:31:12;;;;;;;0.47;0.47;;;;;;;9.98;62.82;98785.50;5040772;28;20494;-89
2021/12/01 11:33:43;;;;;;;0.40;0.40;;;;;;;9.88;64.40;98784.25;5043454;28;20084;-89
2021/12/01 11:36:11;;;;;;;0.50;0.50;;;;;;;9.82;68.47;98792.31;5040784;28;20037;-89
2021/12/01 11:38:36;;;;;;;0.50;0.45;;;;;;;9.99;68.95;98779.38;5040414;28;20034;-89
2021/12/01 11:41:05;;;;;;;0.30;0.30;;;;;;;9.87;67.92;98762.66;5044781;28;20053;-89
2021/12/01 11:43:33;;;;;;;0.65;0.50;;;;;;;9.82;68.39;98769.81;5025844;28;20045;-89
2021/12/01 11:45:59;;;;;;;0.30;0.30;;;;;;;9.71;66.50;98766.94;5045493;28;20060;-89
2021/12/01 11:48:26;;;;;;;0.43;0.38;;;;;;;9.62;67.33;98764.78;5045752;28;20064;-89
2021/12/01 11:51:10;;;;;;;0.20;0.20;;;;;;;9.71;66.98;98756.56;5046128;28;20454;-89